Portada
METAR-TAF:

METAR-TAF

Aeroports :

Kokshetau, Kazakhstan

latitud: 53-19-48N, longitud: 069-35-48E, altitud: 270 m

Observació

L'informe es va fer fa 5 hores i 18 minuts, a les 11:30 UTC
Vent 19 kt del Nord
Temperatura 29°C
Humitat 43%
Pressió 1009 hPa
Visibilitat 10 km o més
sense núvols per sota de 1500 mi sense presència de cumulonimbus.

METAR: UACK 101130Z 36010MPS CAVOK 29/15 Q1009 R02/090070 NOSIG RMK QFE732/0977

Hora: 22:48 (16:48 UTC)

Pronòstic

L'informe es va fer fa 8 hores i 48 minuts, a les 08:00 UTC
Pronòstic vàlid del 10 a les 09 UTC al 10 a les 18 UTC
Vent 14 kt del Nord/Nord-Oest
Visibilitat 10 km o més
Núvols disperses a una alçada de 5000 ft
Temporalment
l' 10 a les 09 UTC al 10 a les 15 UTC
Vent 17 kt del Nord amb ràfegues de 27 kt

TAF: UACK 100800Z 1009/1018 33007MPS 9999 SCT050 TEMPO 1009/1015 35009G14MPS

Observacions i pronòstics meteorològics de més de 4000 aeroports (METAR i TAF).

Les estacions disponibles són els punts grocs i vermells al mapa.

Posi el ratolí al punt desitjat per veure el nom de l'estació.

Feu clic per veure les observacions i els pronòstics meteorològics.

Per canviar el mapa: feu clic els botons verds amb una creu de color negre per apropar; al botó verd amb un guió per allunyar la imatge; o en les fletxes verdes per a mapes adjacents.


METAR-TAF: